Terminal Aerodrome Forecast
Issued by NWS Houston/Galveston TX

Home | Current Version | Previous Version | Text Only | Print | Product List | Glossary On
Versions: 1 2 3 4 5 6 7 8 9 10 11 12 13 14 15 16 17 18 19 20 21 22 23 24 25 26 27
000
FTUS44 KHGX 202054 AAA
TAFHOU
TAF AMD
KHOU 202054Z 2021/2118 09010KT P6SM BKN250
     FM210100 09007KT P6SM SCT180 BKN250
     FM210700 11008KT P6SM BKN025
     FM210900 11007KT P6SM SCT008 BKN015
     FM211100 10008KT 6SM -DZ BR BKN008 OVC015
     FM211600 14012KT P6SM BKN008 BKN015 OVC025=

USA.gov is the U.S. government's official web portal to all federal, state and local government web resources and services.